createdAt,value
2022-07-30T00:01:51.693Z,6.00
2022-07-30T00:04:18.846Z,4.97
2022-07-30T00:06:45.737Z,6.03
2022-07-30T00:09:12.536Z,5.57
2022-07-30T00:11:39.389Z,7.10
2022-07-30T00:14:06.240Z,4.88
2022-07-30T00:16:33.264Z,6.63
2022-07-30T00:18:59.999Z,6.15
2022-07-30T00:21:35.554Z,6.22
2022-07-30T00:24:06.147Z,5.18
2022-07-30T00:26:33.119Z,8.73
2022-07-30T00:29:00.120Z,6.05
2022-07-30T00:31:28.754Z,7.47
2022-07-30T00:33:55.699Z,7.78
2022-07-30T00:36:22.742Z,6.28
2022-07-30T00:38:49.747Z,6.35
2022-07-30T00:41:16.687Z,8.13
2022-07-30T00:43:44.263Z,5.80
2022-07-30T00:46:11.404Z,7.38
2022-07-30T00:48:38.730Z,7.72
2022-07-30T00:51:05.688Z,7.78
2022-07-30T00:53:33.849Z,5.75
2022-07-30T00:56:01.534Z,6.85
2022-07-30T00:58:28.659Z,5.78
2022-07-30T01:00:55.887Z,7.00
2022-07-30T01:03:23.623Z,6.45
2022-07-30T01:05:51.401Z,6.32
2022-07-30T01:08:18.598Z,9.90
2022-07-30T01:10:45.419Z,9.07
2022-07-30T01:13:12.994Z,7.10
2022-07-30T01:15:39.902Z,7.50
2022-07-30T01:18:11.398Z,7.38
2022-07-30T01:21:00.712Z,6.45
2022-07-30T01:23:34.866Z,7.63
2022-07-30T01:26:08.580Z,6.13
2022-07-30T01:31:05.636Z,5.93
2022-07-30T01:33:37.254Z,6.45
2022-07-30T01:36:07.514Z,7.63
2022-07-30T01:38:35.849Z,6.75
2022-07-30T01:41:05.098Z,7.18
2022-07-30T01:43:34.835Z,7.57
2022-07-30T01:46:03.311Z,6.75
2022-07-30T01:48:34.902Z,9.40
2022-07-30T01:51:07.261Z,7.25
2022-07-30T01:53:38.078Z,7.40
2022-07-30T01:56:05.738Z,8.27
2022-07-30T01:58:39.936Z,9.00
2022-07-30T02:01:24.978Z,7.38
2022-07-30T02:04:00.191Z,8.40
2022-07-30T02:06:44.739Z,8.48
2022-07-30T02:09:19.944Z,12.98
2022-07-30T02:12:08.815Z,9.05
2022-07-30T02:18:57.065Z,8.77
2022-07-30T02:21:36.681Z,11.57
2022-07-30T02:24:08.707Z,8.93
2022-07-30T02:26:38.093Z,8.77
2022-07-30T02:29:25.622Z,8.15
2022-07-30T02:31:55.898Z,11.23
2022-07-30T02:34:25.099Z,9.70
2022-07-30T02:36:53.102Z,10.35
2022-07-30T02:39:21.742Z,11.13
2022-07-30T02:41:50.248Z,8.77
2022-07-30T02:44:20.120Z,10.93
2022-07-30T02:46:50.054Z,11.25
2022-07-30T02:49:30.359Z,11.02
2022-07-30T02:51:59.698Z,10.45
2022-07-30T02:54:27.691Z,12.07
2022-07-30T02:56:55.785Z,10.15
2022-07-30T02:59:23.870Z,9.70
2022-07-30T03:01:51.917Z,12.23
2022-07-30T03:04:20.936Z,10.30
2022-07-30T03:06:49.610Z,9.70
2022-07-30T03:09:18.330Z,13.77
2022-07-30T03:11:47.497Z,10.23
2022-07-30T03:14:14.288Z,12.55
2022-07-30T03:16:44.406Z,14.32
2022-07-30T03:19:14.329Z,9.80
2022-07-30T03:21:42.057Z,10.07
2022-07-30T03:24:10.081Z,11.55
2022-07-30T03:26:38.176Z,10.23
2022-07-30T03:29:06.518Z,9.48
2022-07-30T03:31:36.398Z,11.18
2022-07-30T03:34:10.354Z,9.77
2022-07-30T03:39:08.609Z,10.05
2022-07-30T03:41:39.788Z,12.23
2022-07-30T03:44:11.423Z,13.10
2022-07-30T03:46:40.360Z,9.35
2022-07-30T03:49:09.662Z,10.77
2022-07-30T03:51:42.442Z,8.65
2022-07-30T03:54:13.803Z,10.75
2022-07-30T03:56:41.063Z,9.32
2022-07-30T03:59:13.747Z,11.57
2022-07-30T04:01:41.476Z,9.65
2022-07-30T04:04:17.526Z,10.52
2022-07-30T04:06:44.317Z,9.93
2022-07-30T04:09:14.728Z,9.95
2022-07-30T04:11:42.222Z,10.23
2022-07-30T04:14:13.442Z,11.35
2022-07-30T04:17:07.159Z,9.93
2022-07-30T04:19:44.781Z,11.82
2022-07-30T04:22:16.140Z,12.13
2022-07-30T04:24:44.956Z,9.05
2022-07-30T04:27:12.576Z,9.27
2022-07-30T04:29:40.937Z,9.07
2022-07-30T04:32:09.586Z,11.57
2022-07-30T04:34:50.397Z,10.85
2022-07-30T04:37:24.876Z,10.20
2022-07-30T04:39:57.752Z,14.80
2022-07-30T04:42:28.800Z,12.50
2022-07-30T04:45:09.266Z,12.52
2022-07-30T04:47:49.068Z,12.07
2022-07-30T04:50:29.751Z,10.93
2022-07-30T04:52:58.681Z,11.43
2022-07-30T04:55:33.894Z,9.63
2022-07-30T04:58:02.632Z,9.65
2022-07-30T05:00:37.722Z,10.95
2022-07-30T05:03:11.642Z,12.10
2022-07-30T05:05:42.279Z,10.37
2022-07-30T05:08:09.457Z,9.55
2022-07-30T05:10:38.391Z,9.95
2022-07-30T05:13:12.129Z,8.98
2022-07-30T05:15:41.256Z,9.43
2022-07-30T05:18:12.102Z,12.25
2022-07-30T05:20:42.311Z,9.20
2022-07-30T05:25:49.100Z,8.98
2022-07-30T05:28:26.688Z,10.32
2022-07-30T05:30:55.270Z,11.40
2022-07-30T05:33:37.252Z,10.57
2022-07-30T05:36:10.753Z,9.10
2022-07-30T05:38:38.914Z,10.73
2022-07-30T05:41:32.855Z,11.27
2022-07-30T05:44:38.857Z,10.98
2022-07-30T05:47:05.959Z,11.40
2022-07-30T05:49:33.120Z,10.13
2022-07-30T05:52:09.333Z,13.10
2022-07-30T05:54:36.835Z,12.65
2022-07-30T05:57:26.779Z,10.35
2022-07-30T05:59:53.706Z,10.65
2022-07-30T06:02:24.722Z,12.68
2022-07-30T06:05:23.652Z,11.05
2022-07-30T06:07:50.846Z,10.90
2022-07-30T06:10:21.086Z,13.27
2022-07-30T06:12:48.085Z,11.65
2022-07-30T06:15:19.470Z,10.20
2022-07-30T06:17:57.238Z,9.95
2022-07-30T06:23:36.633Z,10.27
2022-07-30T06:26:17.635Z,10.38
2022-07-30T06:28:45.571Z,10.60
2022-07-30T06:31:29.486Z,9.60
2022-07-30T06:33:56.736Z,9.43
2022-07-30T06:36:27.641Z,8.73
2022-07-30T06:39:04.488Z,9.80
2022-07-30T06:41:50.322Z,7.38
2022-07-30T06:44:17.311Z,7.68
2022-07-30T06:47:07.825Z,9.10
2022-07-30T06:49:37.634Z,11.05
2022-07-30T06:52:06.148Z,10.57
2022-07-30T06:54:33.519Z,8.98
2022-07-30T06:57:20.527Z,6.55
2022-07-30T06:59:56.139Z,7.55
2022-07-30T07:02:40.039Z,7.15
2022-07-30T07:07:56.492Z,8.02
2022-07-30T07:10:27.783Z,5.50
2022-07-30T07:13:12.685Z,6.38
2022-07-30T07:15:40.206Z,8.77
2022-07-30T07:18:12.785Z,8.57
2022-07-30T07:20:43.559Z,8.07
2022-07-30T07:23:12.431Z,7.35
2022-07-30T07:25:41.087Z,7.75
2022-07-30T07:28:12.280Z,7.18
2022-07-30T07:30:44.433Z,7.07
2022-07-30T07:33:13.335Z,11.20
2022-07-30T07:35:48.655Z,7.38
2022-07-30T07:38:21.153Z,7.15
2022-07-30T07:40:49.982Z,7.60
2022-07-30T07:43:17.362Z,6.25
2022-07-30T07:45:45.658Z,6.15
2022-07-30T07:48:12.950Z,5.07
2022-07-30T07:51:00.336Z,5.88
2022-07-30T07:53:30.531Z,4.73
2022-07-30T07:55:57.967Z,5.05
2022-07-30T07:58:26.441Z,7.88
2022-07-30T08:00:56.710Z,6.55
2022-07-30T08:03:36.142Z,6.53
2022-07-30T08:06:16.001Z,5.30
2022-07-30T08:09:05.999Z,5.75
2022-07-30T08:11:58.045Z,5.80
2022-07-30T08:14:45.292Z,5.65
2022-07-30T08:17:30.503Z,5.97
2022-07-30T08:20:13.047Z,5.53
2022-07-30T08:22:40.143Z,7.32
2022-07-30T08:25:07.759Z,6.93
2022-07-30T08:27:34.717Z,5.05
2022-07-30T08:30:09.018Z,6.95
2022-07-30T08:32:36.149Z,5.95
2022-07-30T08:35:05.817Z,5.72
2022-07-30T08:37:34.336Z,5.55
2022-07-30T08:40:03.448Z,5.65
2022-07-30T08:42:33.995Z,5.05
2022-07-30T08:45:01.021Z,4.70
2022-07-30T08:47:32.509Z,5.60
2022-07-30T08:50:19.421Z,4.32
2022-07-30T08:53:08.432Z,4.55
2022-07-30T08:55:35.358Z,4.20
2022-07-30T08:58:03.331Z,4.45
2022-07-30T09:00:31.511Z,6.70
2022-07-30T09:02:59.011Z,6.85
2022-07-30T09:05:25.873Z,6.60
2022-07-30T09:07:52.656Z,5.35
2022-07-30T09:10:24.710Z,5.80
2022-07-30T09:12:52.079Z,7.70
2022-07-30T09:15:22.341Z,6.88
2022-07-30T09:17:54.509Z,5.43
2022-07-30T09:20:34.129Z,5.82
2022-07-30T09:23:04.160Z,6.78
2022-07-30T09:25:50.001Z,6.80
2022-07-30T09:28:55.470Z,6.50
2022-07-30T09:32:02.924Z,9.68
2022-07-30T09:35:14.765Z,6.45
2022-07-30T09:38:05.965Z,8.05
2022-07-30T09:41:04.846Z,7.45
2022-07-30T09:43:51.631Z,8.35
2022-07-30T09:46:48.078Z,5.05
2022-07-30T09:49:29.422Z,9.73
2022-07-30T09:54:51.644Z,4.70
2022-07-30T09:57:26.642Z,7.90
2022-07-30T10:00:24.055Z,7.93
2022-07-30T10:03:21.852Z,7.68
2022-07-30T10:06:38.094Z,6.93
2022-07-30T10:09:37.560Z,6.45
2022-07-30T10:12:10.501Z,6.65
2022-07-30T10:14:43.853Z,6.20
2022-07-30T10:17:13.474Z,6.22
2022-07-30T10:19:42.741Z,5.82
2022-07-30T10:22:30.025Z,5.55
2022-07-30T10:25:28.062Z,6.63
2022-07-30T10:28:15.448Z,7.35
2022-07-30T10:30:43.789Z,7.68
2022-07-30T10:33:34.239Z,5.40
2022-07-30T10:35:59.493Z,11.63
2022-07-30T10:38:34.288Z,7.20
2022-07-30T10:41:42.603Z,9.65
2022-07-30T10:44:48.920Z,14.10
2022-07-30T10:47:22.902Z,5.13
2022-07-30T10:50:15.609Z,6.10
2022-07-30T10:52:51.215Z,4.57
2022-07-30T10:55:37.274Z,5.05
2022-07-30T10:58:10.116Z,8.70
2022-07-30T11:01:00.530Z,9.48
2022-07-30T11:03:40.685Z,6.35
2022-07-30T11:08:45.152Z,7.43
2022-07-30T11:11:59.163Z,8.63
2022-07-30T11:14:08.233Z,5.75
2022-07-30T11:16:34.992Z,6.15
2022-07-30T11:22:29.762Z,5.60
2022-07-30T11:24:57.215Z,5.15
2022-07-30T11:27:49.008Z,5.95
2022-07-30T11:30:17.712Z,5.22
2022-07-30T11:32:48.928Z,6.07
2022-07-30T11:35:23.641Z,5.10
2022-07-30T11:38:12.163Z,5.47
2022-07-30T11:41:01.556Z,7.80
2022-07-30T11:43:35.825Z,5.68
2022-07-30T11:46:10.936Z,6.18
2022-07-30T11:48:41.832Z,8.55
2022-07-30T11:51:09.985Z,6.20
2022-07-30T11:53:37.188Z,5.63
2022-07-30T11:56:04.226Z,4.85
2022-07-30T11:58:35.421Z,4.82
2022-07-30T12:01:11.743Z,7.90
2022-07-30T12:03:46.254Z,5.45
2022-07-30T12:06:18.386Z,8.57
2022-07-30T12:08:53.896Z,7.10
2022-07-30T12:11:23.330Z,6.00
2022-07-30T12:14:01.905Z,6.40
2022-07-30T12:16:30.935Z,5.30
2022-07-30T12:19:09.447Z,6.03
2022-07-30T12:21:36.823Z,5.13
2022-07-30T12:24:09.883Z,4.38
2022-07-30T12:26:36.739Z,4.55
2022-07-30T12:29:06.647Z,5.07
2022-07-30T12:31:33.948Z,5.65
2022-07-30T12:34:00.978Z,4.30
2022-07-30T12:36:34.028Z,6.45
2022-07-30T12:39:02.497Z,4.30
2022-07-30T12:41:46.799Z,5.25
2022-07-30T12:44:36.966Z,8.32
2022-07-30T12:47:06.197Z,4.32
2022-07-30T12:49:39.179Z,4.20
2022-07-30T12:52:31.317Z,4.57
2022-07-30T12:55:09.840Z,6.47
2022-07-30T12:57:56.204Z,4.18
2022-07-30T13:00:26.250Z,7.50
2022-07-30T13:02:54.659Z,4.18
2022-07-30T13:05:41.765Z,6.45
2022-07-30T13:08:08.703Z,5.38
2022-07-30T13:10:35.614Z,3.80
2022-07-30T13:13:02.412Z,4.32
2022-07-30T13:15:29.369Z,4.25
2022-07-30T13:17:56.193Z,4.07
2022-07-30T13:20:23.269Z,9.48
2022-07-30T13:22:50.027Z,4.05
2022-07-30T13:25:16.859Z,3.88
2022-07-30T13:27:43.861Z,3.72
2022-07-30T13:30:11.037Z,3.70
2022-07-30T13:32:37.839Z,5.05
2022-07-30T13:35:05.310Z,4.22
2022-07-30T13:37:38.154Z,3.53
2022-07-30T13:40:07.027Z,3.40
2022-07-30T13:42:34.026Z,3.63
2022-07-30T13:45:01.002Z,3.80
2022-07-30T13:47:28.329Z,3.78
2022-07-30T13:49:55.070Z,5.40
2022-07-30T13:52:21.826Z,4.80
2022-07-30T13:54:50.766Z,5.82
2022-07-30T13:57:17.815Z,3.72
2022-07-30T13:59:44.577Z,3.47
2022-07-30T14:02:11.402Z,4.78
2022-07-30T14:04:38.144Z,7.60
2022-07-30T14:07:05.657Z,5.38
2022-07-30T14:09:33.132Z,4.72
2022-07-30T14:12:11.483Z,3.63
2022-07-30T14:14:38.446Z,5.13
2022-07-30T14:17:05.435Z,4.00
2022-07-30T14:19:32.425Z,5.32
2022-07-30T14:21:59.273Z,5.88
2022-07-30T14:24:26.070Z,4.25
2022-07-30T14:26:57.792Z,4.85
2022-07-30T14:29:26.297Z,5.53
2022-07-30T14:31:53.472Z,6.70
2022-07-30T14:34:20.465Z,4.35
2022-07-30T14:36:47.183Z,5.03
2022-07-30T14:39:14.850Z,4.57
2022-07-30T14:41:43.370Z,4.97
2022-07-30T14:44:12.301Z,4.55
2022-07-30T14:46:51.797Z,4.93
2022-07-30T14:49:19.934Z,5.05
2022-07-30T14:51:47.060Z,4.32
2022-07-30T14:54:14.521Z,5.03
2022-07-30T14:56:41.887Z,5.15
2022-07-30T14:59:08.767Z,4.32
2022-07-30T15:01:35.537Z,5.90
2022-07-30T15:04:02.688Z,4.93
2022-07-30T15:06:30.206Z,6.55
2022-07-30T15:08:56.952Z,5.05
2022-07-30T15:11:24.379Z,4.70
2022-07-30T15:13:52.564Z,7.25
2022-07-30T15:16:20.069Z,4.70
2022-07-30T15:18:47.308Z,3.95
2022-07-30T15:21:14.227Z,5.20
2022-07-30T15:23:41.186Z,6.57
2022-07-30T15:26:08.120Z,3.90
2022-07-30T15:28:35.209Z,3.40
2022-07-30T15:31:01.994Z,4.90
2022-07-30T15:33:29.152Z,6.47
2022-07-30T15:35:56.366Z,5.47
2022-07-30T15:38:23.236Z,4.07
2022-07-30T15:40:50.057Z,3.40
2022-07-30T15:43:17.162Z,5.03
2022-07-30T15:45:51.230Z,3.38
2022-07-30T15:48:26.705Z,3.35
2022-07-30T15:51:03.070Z,3.45
2022-07-30T15:53:31.429Z,4.50
2022-07-30T15:55:59.272Z,4.55
2022-07-30T15:58:26.566Z,6.43
2022-07-30T16:00:53.470Z,3.65
2022-07-30T16:03:23.878Z,3.40
2022-07-30T16:05:52.959Z,3.63
2022-07-30T16:08:23.244Z,4.00
2022-07-30T16:10:50.246Z,3.60
2022-07-30T16:13:17.827Z,3.97
2022-07-30T16:15:45.506Z,3.40
2022-07-30T16:18:12.428Z,5.60
2022-07-30T16:20:39.553Z,6.28
2022-07-30T16:23:12.638Z,4.95
2022-07-30T16:25:43.843Z,5.85
2022-07-30T16:28:11.725Z,4.50
2022-07-30T16:30:50.532Z,3.75
2022-07-30T16:33:19.444Z,4.57
2022-07-30T16:35:51.173Z,6.70
2022-07-30T16:38:24.220Z,3.72
2022-07-30T16:40:51.653Z,5.93
2022-07-30T16:43:19.792Z,4.70
2022-07-30T16:45:51.265Z,4.00
2022-07-30T16:48:19.004Z,4.13
2022-07-30T16:50:46.074Z,4.68
2022-07-30T16:53:14.512Z,4.25
2022-07-30T16:55:45.903Z,3.67
2022-07-30T16:58:15.032Z,4.20
2022-07-30T17:00:42.180Z,4.97
2022-07-30T17:03:12.070Z,4.38
2022-07-30T17:05:47.868Z,3.58
2022-07-30T17:08:14.947Z,3.75
2022-07-30T17:10:47.875Z,3.80
2022-07-30T17:13:18.652Z,4.97
2022-07-30T17:15:46.932Z,3.95
2022-07-30T17:18:14.763Z,3.90
2022-07-30T17:20:41.628Z,4.90
2022-07-30T17:23:08.976Z,5.28
2022-07-30T17:25:35.834Z,4.72
2022-07-30T17:28:02.607Z,4.20
2022-07-30T17:30:30.161Z,4.40
2022-07-30T17:32:57.000Z,5.22
2022-07-30T17:35:24.778Z,4.60
2022-07-30T17:37:53.362Z,4.55
2022-07-30T17:40:28.924Z,4.00
2022-07-30T17:43:04.224Z,4.03
2022-07-30T17:45:37.449Z,4.35
2022-07-30T17:48:07.609Z,4.63
2022-07-30T17:50:35.223Z,4.93
2022-07-30T17:53:04.063Z,6.10
2022-07-30T17:55:34.990Z,4.78
2022-07-30T17:58:06.272Z,5.25
2022-07-30T18:00:35.328Z,5.45
2022-07-30T18:03:02.706Z,5.00
2022-07-30T18:05:29.921Z,4.45
2022-07-30T18:07:56.929Z,4.75
2022-07-30T18:10:23.870Z,5.85
2022-07-30T18:12:50.711Z,6.95
2022-07-30T18:15:19.250Z,3.50
2022-07-30T18:17:46.363Z,6.22
2022-07-30T18:20:14.310Z,6.28
2022-07-30T18:22:41.499Z,4.07
2022-07-30T18:25:18.784Z,4.57
2022-07-30T18:27:47.671Z,4.55
2022-07-30T18:30:15.269Z,4.32
2022-07-30T18:32:42.285Z,4.75
2022-07-30T18:35:14.190Z,5.00
2022-07-30T18:37:45.890Z,5.32
2022-07-30T18:40:16.947Z,4.80
2022-07-30T18:42:45.446Z,4.93
2022-07-30T18:45:14.078Z,4.60
2022-07-30T18:47:45.232Z,4.88
2022-07-30T18:50:14.579Z,4.75
2022-07-30T18:52:42.066Z,4.65
2022-07-30T18:55:12.120Z,10.32
2022-07-30T18:57:39.596Z,5.55
2022-07-30T19:00:09.606Z,5.95
2022-07-30T19:02:37.648Z,7.10
2022-07-30T19:05:06.490Z,5.18
2022-07-30T19:07:57.070Z,5.00
2022-07-30T19:10:23.447Z,5.43
2022-07-30T19:12:54.347Z,6.57
2022-07-30T19:15:21.298Z,8.20
2022-07-30T19:17:49.291Z,5.50
2022-07-30T19:20:16.122Z,5.03
2022-07-30T19:22:43.610Z,7.30
2022-07-30T19:25:11.149Z,6.72
2022-07-30T19:27:37.893Z,7.07
2022-07-30T19:30:05.587Z,6.40
2022-07-30T19:32:32.562Z,5.72
2022-07-30T19:34:59.323Z,10.18
2022-07-30T19:37:26.257Z,6.47
2022-07-30T19:40:05.418Z,5.93
2022-07-30T19:42:32.851Z,5.50
2022-07-30T19:45:11.119Z,5.78
2022-07-30T19:47:39.862Z,6.10
2022-07-30T19:50:12.504Z,5.63
2022-07-30T19:52:51.068Z,5.60
2022-07-30T19:55:35.042Z,6.95
2022-07-30T19:58:16.401Z,11.80
2022-07-30T20:00:49.434Z,5.88
2022-07-30T20:03:26.041Z,6.03
2022-07-30T20:06:00.949Z,6.70
2022-07-30T20:08:33.922Z,7.13
2022-07-30T20:13:43.895Z,5.50
2022-07-30T20:16:17.299Z,6.00
2022-07-30T20:18:46.209Z,7.40
2022-07-30T20:21:15.391Z,9.32
2022-07-30T20:23:44.675Z,6.38
2022-07-30T20:26:14.967Z,5.68
2022-07-30T20:28:45.680Z,6.00
2022-07-30T20:31:13.021Z,6.90
2022-07-30T20:33:40.567Z,6.78
2022-07-30T20:36:09.910Z,5.53
2022-07-30T20:38:39.006Z,5.97
2022-07-30T20:41:09.975Z,6.40
2022-07-30T20:43:46.274Z,5.82
2022-07-30T20:46:18.554Z,5.30
2022-07-30T20:48:46.204Z,6.32
2022-07-30T20:51:13.219Z,6.10
2022-07-30T20:53:41.795Z,6.80
2022-07-30T20:56:13.316Z,6.82
2022-07-30T20:58:46.066Z,6.22
2022-07-30T21:01:17.707Z,6.38
2022-07-30T21:03:47.853Z,6.57
2022-07-30T21:06:15.934Z,5.68
2022-07-30T21:08:42.868Z,6.13
2022-07-30T21:11:10.015Z,6.38
2022-07-30T21:13:39.687Z,5.78
2022-07-30T21:16:15.903Z,5.80
2022-07-30T21:18:50.226Z,9.70
2022-07-30T21:21:38.190Z,6.57
2022-07-30T21:24:11.269Z,5.68
2022-07-30T21:26:42.145Z,6.43
2022-07-30T21:29:09.668Z,6.85
2022-07-30T21:32:01.378Z,5.85
2022-07-30T21:34:26.477Z,5.90
2022-07-30T21:36:53.782Z,6.25
2022-07-30T21:39:20.588Z,5.78
2022-07-30T21:41:57.024Z,6.15
2022-07-30T21:44:24.572Z,6.20
2022-07-30T21:46:52.847Z,6.00
2022-07-30T21:49:20.849Z,5.80
2022-07-30T21:51:48.327Z,6.20
2022-07-30T21:54:28.640Z,5.97
2022-07-30T21:56:58.330Z,5.47
2022-07-30T21:59:27.598Z,5.95
2022-07-30T22:01:55.914Z,5.40
2022-07-30T22:04:23.908Z,7.53
2022-07-30T22:09:38.861Z,5.55
2022-07-30T22:12:09.792Z,5.38
2022-07-30T22:14:39.978Z,5.63
2022-07-30T22:17:14.769Z,5.43
2022-07-30T22:19:50.183Z,8.00
2022-07-30T22:22:26.286Z,6.07
2022-07-30T22:24:55.174Z,5.80
2022-07-30T22:27:24.188Z,5.10
2022-07-30T22:29:51.086Z,5.43
2022-07-30T22:32:23.806Z,5.00
2022-07-30T22:34:52.031Z,5.80
2022-07-30T22:37:23.365Z,6.60
2022-07-30T22:39:52.372Z,6.30
2022-07-30T22:42:24.427Z,6.63
2022-07-30T22:44:52.476Z,6.20
2022-07-30T22:47:21.820Z,6.47
2022-07-30T22:50:06.660Z,8.10
2022-07-30T22:52:38.998Z,6.70
2022-07-30T22:57:53.914Z,7.18
2022-07-30T23:00:27.487Z,7.25
2022-07-30T23:02:56.123Z,9.90
2022-07-30T23:05:23.629Z,10.20
2022-07-30T23:07:50.915Z,6.97
2022-07-30T23:10:20.452Z,7.15
2022-07-30T23:12:28.283Z,5.95
2022-07-30T23:12:30.762Z,6.65
2022-07-30T23:12:53.567Z,7.22
2022-07-30T23:15:21.156Z,7.63
2022-07-30T23:17:48.052Z,6.95
2022-07-30T23:20:18.453Z,7.47
2022-07-30T23:22:45.884Z,8.43
2022-07-30T23:25:13.883Z,7.97
2022-07-30T23:27:41.395Z,7.90
2022-07-30T23:30:10.244Z,8.50
2022-07-30T23:32:38.057Z,8.98
2022-07-30T23:35:06.200Z,9.82
2022-07-30T23:37:48.668Z,7.60
2022-07-30T23:40:17.520Z,7.93
2022-07-30T23:42:44.767Z,7.95
2022-07-30T23:45:12.189Z,8.95
2022-07-30T23:48:00.192Z,7.78
2022-07-30T23:50:26.047Z,7.55
2022-07-30T23:52:52.915Z,8.38
2022-07-30T23:55:19.786Z,7.70
2022-07-30T23:57:46.550Z,8.18
